Latest Weather Observations for Aireys Inlet

IDV60801

Issued at 4:02 pm EST Wednesday 24 August 2016 (issued every 30 minutes, with the page automatically refreshed every 10 minutes)

About weather observations | Map of weather stations | Latest weather observations for VIC | Other Formats
Station Details ID: 090180 Name: AIREYS INLET Lat: -38.46 Lon: 144.09 Height: 105.0 m
Data from the previous 72 hours. | See also: Recent months at Aireys Inlet
Date/Time
EST
Temp
°C
App
Temp
°C
Dew
Point
°C
Rel
Hum
%
Delta-T
°C
Wind Press
QNH
hPa
Press
MSL
hPa
Rain since
9am
mm
Dir  Spd
km/h
Gust
km/h
Spd
kts
Gust
kts
24/04:00pm 10.1 6.1 4.9 70 2.4 SSW 15 22 8 12 - - 3.8
24/03:30pm 10.9 7.5 5.7 70 2.4 S 13 20 7 11 - - 3.8
24/03:00pm 10.6 8.7 7.5 81 1.5 SW 7 13 4 7 - - 3.8
24/02:30pm 10.7 8.9 7.9 83 1.4 SSW 7 9 4 5 - - 3.8
24/02:00pm 10.0 8.6 8.9 93 0.5 SW 6 9 3 5 - - 3.8
24/01:30pm 9.4 7.0 8.5 94 0.4 SW 11 17 6 9 - - 3.8
24/01:00pm 8.7 5.3 7.8 94 0.4 SSW 15 24 8 13 - - 3.8
24/12:30pm 8.9 4.8 7.7 92 0.6 SW 19 28 10 15 - - 2.2
24/12:00pm 10.1 7.6 8.0 87 1.0 SSW 11 20 6 11 - - 1.6
24/11:30am 9.6 5.9 7.9 89 0.8 SW 17 24 9 13 - - 1.4
24/11:00am 11.2 8.4 8.4 83 1.4 SSW 13 24 7 13 - - 1.0
24/10:30am 10.2 8.2 8.6 90 0.8 SSE 9 13 5 7 - - 1.0
24/10:00am 8.7 5.7 7.8 94 0.4 S 13 22 7 12 - - 1.0
24/09:30am 8.7 5.7 7.9 95 0.4 SW 13 24 7 13 - - 0.4
24/09:00am 8.6 5.9 7.5 93 0.5 WSW 11 17 6 9 - - 2.8
24/08:30am 8.1 5.4 7.3 95 0.4 WSW 11 15 6 8 - - 2.8
24/08:00am 7.6 5.2 6.9 95 0.3 WSW 9 13 5 7 - - 2.8
24/07:30am 7.2 5.0 6.3 94 0.4 WSW 7 9 4 5 - - 2.8
24/07:00am 7.1 4.5 6.2 94 0.4 W 9 13 5 7 - - 2.8
24/06:30am 6.9 3.6 6.2 95 0.3 WSW 13 17 7 9 - - 2.8
24/06:00am 7.0 4.1 6.3 95 0.3 WSW 11 15 6 8 - - 2.8
24/05:30am 7.3 4.4 6.6 95 0.3 WSW 11 15 6 8 - - 1.6
24/05:00am 7.1 5.5 6.2 94 0.4 WSW 4 9 2 5 - - 1.6
24/04:30am 7.0 5.3 5.9 93 0.5 WSW 4 6 2 3 - - 1.6
24/04:00am 7.8 5.9 6.7 93 0.5 SW 6 9 3 5 - - 1.4
24/03:30am 7.5 4.8 5.6 88 0.9 WSW 9 13 5 7 - - 0.0
24/03:00am 6.3 3.9 5.1 92 0.5 NW 7 9 4 5 - - 0.0
24/02:30am 6.4 3.6 5.2 92 0.5 NNW 9 11 5 6 - - 0.0
24/02:00am 6.4 4.0 5.2 92 0.5 NNW 7 9 4 5 - - 0.0
24/01:30am 7.7 6.1 6.3 91 0.6 W 4 6 2 3 - - 0.0
24/01:00am 7.8 5.8 6.3 90 0.7 SW 6 6 3 3 - - 0.0
24/12:30am 8.0 5.8 5.5 84 1.1 SSW 6 9 3 5 - - 0.0
24/12:00am 7.3 5.1 5.3 87 0.9 W 6 9 3 5 - - 0.0
 
Date/Time
EST
Temp
°C
App
Temp
°C
Dew
Point
°C
Rel
Hum
%
Delta-T
°C
Wind Press
QNH
hPa
Press
MSL
hPa
Rain since
9am
mm
Dir  Spd
km/h
Gust
km/h
Spd
kts
Gust
kts
23/11:30pm 8.1 6.0 5.7 85 1.1 WSW 6 7 3 4 - - 0.0
23/11:00pm 7.5 5.3 5.1 85 1.1 W 6 7 3 4 - - 0.0
23/10:30pm 7.5 4.8 5.5 87 0.9 WSW 9 13 5 7 - - 0.0
23/10:00pm 7.7 4.2 5.3 85 1.1 WSW 13 15 7 8 - - 0.0
23/09:30pm 7.7 5.0 5.5 86 1.0 WSW 9 13 5 7 - - 0.0
23/09:00pm 8.0 5.3 5.6 85 1.1 WSW 9 11 5 6 - - 0.0
23/08:30pm 8.8 5.7 5.7 81 1.4 SSW 11 20 6 11 - - 0.0
23/08:00pm 8.8 5.9 6.6 86 1.0 SSW 11 15 6 8 - - 0.0
23/07:30pm 8.8 5.8 5.9 82 1.3 SW 11 15 6 8 - - 0.0
23/07:00pm 9.0 6.7 5.9 81 1.4 SW 7 11 4 6 - - 0.0
23/06:30pm 9.2 6.5 5.8 79 1.6 SW 9 13 5 7 - - 0.0
23/06:00pm 9.1 6.3 5.1 76 1.8 SSW 9 13 5 7 - - 0.0
23/05:30pm 9.7 7.1 5.9 77 1.8 S 9 15 5 8 - - 0.0
23/05:00pm 10.3 7.3 4.2 66 2.7 SSW 9 13 5 7 - - 0.0
23/04:30pm 10.3 7.2 3.6 63 3.0 SSW 9 13 5 7 - - 0.0
23/04:00pm 12.5 9.1 4.2 57 3.8 S 11 17 6 9 - - 0.0
23/03:30pm 12.7 9.2 3.6 54 4.1 S 11 15 6 8 - - 0.0
23/03:00pm 12.9 9.7 3.0 51 4.4 S 9 17 5 9 - - 0.0
23/02:30pm 14.3 11.4 4.6 52 4.5 SSW 9 15 5 8 - - 0.0
23/02:00pm 13.7 10.4 4.3 53 4.3 SSW 11 17 6 9 - - 0.0
23/01:30pm 13.3 9.3 4.7 56 4.0 SSW 15 20 8 11 - - 0.0
23/01:00pm 13.4 9.4 4.8 56 4.0 SSW 15 24 8 13 - - 0.0
23/12:30pm 13.1 8.9 3.7 53 4.3 SSW 15 20 8 11 - - 0.0
23/12:00pm 12.9 8.8 4.1 55 4.0 SSW 15 22 8 12 - - 0.0
23/11:30am 12.5 8.4 4.2 57 3.8 SW 15 22 8 12 - - 0.0
23/11:00am 12.3 8.2 4.3 58 3.6 SW 15 20 8 11 - - 0.0
23/10:30am 11.9 7.7 3.9 58 3.6 SW 15 20 8 11 - - 0.0
23/10:00am 11.1 8.0 3.4 59 3.4 SW 9 19 5 10 - - 0.0
23/09:30am 10.3 7.9 4.5 67 2.6 W 6 11 3 6 - - 0.0
23/09:00am 8.6 6.0 4.4 75 1.9 WNW 7 9 4 5 - - 0.8
23/08:30am 6.9 4.3 4.2 83 1.2 NW 7 9 4 5 - - 0.8
23/08:00am 6.3 3.8 3.8 84 1.1 NW 6 7 3 4 - - 0.6
23/07:30am 5.5 2.7 3.0 84 1.0 NW 7 9 4 5 - - 0.6
23/07:00am 5.3 2.0 2.7 83 1.1 NNW 9 13 5 7 - - 0.6
23/06:30am 5.0 1.7 2.4 83 1.1 NNW 9 13 5 7 - - 0.6
23/06:00am 5.3 2.0 2.3 81 1.2 NNW 9 15 5 8 - - 0.6
23/05:30am 5.5 1.9 2.8 83 1.1 NNW 11 15 6 8 - - 0.6
23/05:00am 6.0 2.8 3.2 82 1.2 NNW 9 13 5 7 - - 0.6
23/04:30am 7.2 4.3 2.7 73 1.9 WSW 7 9 4 5 - - 0.6
23/04:00am 7.1 3.9 3.3 77 1.6 WSW 9 13 5 7 - - 0.6
23/03:30am 7.2 4.2 4.0 80 1.4 WSW 9 13 5 7 - - 0.6
23/03:00am 7.5 4.6 4.5 81 1.3 WSW 9 13 5 7 - - 0.6
23/02:30am 7.5 4.6 4.8 83 1.2 WSW 9 13 5 7 - - 0.6
23/02:00am 7.9 5.4 5.0 82 1.3 WSW 7 11 4 6 - - 0.6
23/01:30am 7.9 5.1 5.2 83 1.2 WSW 9 11 5 6 - - 0.6
23/01:00am 7.7 4.9 5.2 84 1.1 WSW 9 11 5 6 - - 0.6
23/12:30am 7.7 5.3 5.3 85 1.1 WSW 7 11 4 6 - - 0.6
23/12:00am 8.1 5.9 6.2 88 0.9 WSW 7 9 4 5 - - 0.6
 
Date/Time
EST
Temp
°C
App
Temp
°C
Dew
Point
°C
Rel
Hum
%
Delta-T
°C
Wind Press
QNH
hPa
Press
MSL
hPa
Rain since
9am
mm
Dir  Spd
km/h
Gust
km/h
Spd
kts
Gust
kts
22/11:30pm 8.1 6.2 6.7 91 0.6 NW 6 6 3 3 - - 0.6
22/11:00pm 8.2 6.7 6.8 91 0.7 NW 4 6 2 3 - - 0.6
22/10:30pm 8.9 8.3 7.2 89 0.8 CALM 0 0 0 0 - - 0.6
22/10:00pm 9.1 7.2 6.5 84 1.2 SSW 6 15 3 8 - - 0.4
22/09:30pm 9.1 7.1 6.4 83 1.3 SE 6 7 3 4 - - 0.4
22/09:00pm 9.4 7.4 7.2 86 1.0 SSW 7 11 4 6 - - 0.4
22/08:30pm 9.5 7.3 6.0 79 1.6 SSE 7 11 4 6 - - 0.4
22/08:00pm 9.3 7.1 6.0 80 1.5 S 7 11 4 6 - - 0.4
22/07:30pm 9.1 6.7 7.2 88 0.9 SW 9 13 5 7 - - 0.4
22/07:00pm 9.0 6.7 7.5 90 0.7 SW 9 15 5 8 - - 0.4
22/06:30pm 9.3 7.0 7.4 88 0.9 SW 9 17 5 9 - - 0.4
22/06:00pm 9.2 6.1 7.2 87 0.9 SSW 13 20 7 11 - - 0.4
22/05:30pm 9.3 6.7 7.9 91 0.7 S 11 17 6 9 - - 0.4
22/05:00pm 9.4 7.3 8.2 92 0.6 SSW 9 13 5 7 - - 0.4
22/04:30pm 9.8 7.7 8.1 89 0.8 SW 9 13 5 7 - - 0.2
22/04:00pm 10.2 7.7 8.0 86 1.1 SSW 11 17 6 9 - - 0.2
22/03:30pm 11.4 9.4 8.6 83 1.4 SSW 9 15 5 8 - - 0.2
22/03:00pm 10.8 8.2 7.9 82 1.4 SW 11 20 6 11 - - 0.2
22/02:30pm 10.9 8.5 8.7 86 1.1 SSW 11 19 6 10 - - 0.2
22/02:00pm 12.1 9.9 9.5 84 1.3 SSW 11 19 6 10 - - 0.2
22/01:30pm 10.9 9.0 9.0 88 0.9 SSW 9 15 5 8 - - 0.2
22/01:00pm 11.3 9.7 8.7 84 1.3 SSW 7 9 4 5 - - 0.2
22/12:30pm 11.7 10.0 8.4 80 1.6 S 7 11 4 6 - - 0.0
22/12:00pm 11.7 9.6 8.2 79 1.7 S 9 13 5 7 - - 0.0
22/11:30am 11.5 9.3 7.8 78 1.8 S 9 15 5 8 - - 0.0
22/11:00am 13.1 11.5 8.0 71 2.5 SSW 6 9 3 5 - - 0.0
22/10:30am 12.4 10.6 7.1 70 2.6 N 6 11 3 6 - - 0.0
22/10:00am 11.3 9.3 7.0 75 2.1 NNW 7 11 4 6 - - 0.0
22/09:30am 10.1 7.2 6.3 77 1.8 NW 11 15 6 8 - - 0.0
22/09:00am 9.2 7.3 6.8 85 1.1 N 6 9 3 5 - - 6.6
22/08:30am 8.7 7.3 7.2 90 0.7 NNE 4 6 2 3 - - 6.6
22/08:00am 7.5 5.3 6.1 91 0.6 NNE 7 9 4 5 - - 6.6
22/07:30am 7.8 6.5 6.1 89 0.8 NW 2 6 1 3 - - 6.6
22/07:00am 8.2 6.3 6.5 89 0.8 W 6 13 3 7 - - 6.6
22/06:30am 7.5 5.5 6.4 93 0.5 NNE 6 7 3 4 - - 6.6
22/06:00am 7.6 6.0 6.2 91 0.6 NNE 4 6 2 3 - - 6.6
22/05:30am 7.9 6.6 6.2 89 0.8 S 2 4 1 2 - - 6.6
22/05:00am 8.2 6.6 6.3 88 0.9 WNW 4 6 2 3 - - 6.6
22/04:30am 8.1 5.6 6.4 89 0.8 NW 9 13 5 7 - - 6.6
22/04:00am 7.9 4.6 6.4 90 0.7 NW 13 19 7 10 - - 6.6
22/03:30am 7.9 3.8 6.4 90 0.7 NW 17 24 9 13 - - 6.6
22/03:00am 7.7 3.1 6.5 92 0.6 NW 20 28 11 15 - - 6.6
22/02:30am 7.7 3.7 6.5 92 0.6 NW 17 20 9 11 - - 6.6
22/02:00am 8.0 4.8 6.9 93 0.5 NW 13 19 7 10 - - 6.6
22/01:30am 8.5 6.2 7.6 94 0.4 WNW 9 11 5 6 - - 6.6
22/01:00am 8.8 5.8 7.6 92 0.6 NW 13 17 7 9 - - 6.6
22/12:30am 8.9 6.0 8.0 94 0.4 WNW 13 17 7 9 - - 6.6
22/12:00am 8.7 6.1 7.9 95 0.4 NW 11 15 6 8 - - 6.6
 
Date/Time
EST
Temp
°C
App
Temp
°C
Dew
Point
°C
Rel
Hum
%
Delta-T
°C
Wind Press
QNH
hPa
Press
MSL
hPa
Rain since
9am
mm
Dir  Spd
km/h
Gust
km/h
Spd
kts
Gust
kts
21/11:30pm 8.3 6.6 7.5 95 0.4 NNW 6 9 3 5 - - 6.6
21/11:00pm 8.5 7.2 7.7 95 0.4 W 4 6 2 3 - - 6.4
21/10:30pm 8.9 7.1 8.1 95 0.4 NW 7 11 4 6 - - 6.4
21/10:00pm 8.8 7.6 8.0 95 0.4 NNW 4 9 2 5 - - 6.4
21/09:30pm 8.8 7.6 8.0 95 0.4 NW 4 6 2 3 - - 6.2
21/09:00pm 8.7 6.9 7.9 95 0.4 NW 7 11 4 6 - - 6.2
21/08:30pm 8.8 7.2 8.0 95 0.4 NNW 6 9 3 5 - - 6.2
21/08:00pm 9.2 8.1 8.4 95 0.4 N 4 6 2 3 - - 6.2
21/07:30pm 9.3 8.6 8.5 95 0.4 NW 2 4 1 2 - - 5.8
21/07:00pm 9.3 9.0 8.5 95 0.4 CALM 0 0 0 0 - - 5.2
21/06:30pm 9.2 8.8 8.4 95 0.4 CALM 0 0 0 0 - - 4.8
21/06:00pm 9.4 8.3 8.6 95 0.4 SW 4 6 2 3 - - 4.8
21/05:30pm 9.4 8.3 8.6 95 0.4 SW 4 7 2 4 - - 2.6
21/05:00pm 9.7 8.3 8.8 94 0.4 SSW 6 9 3 5 - - 2.0
21/04:30pm 10.0 8.1 8.9 93 0.5 SW 9 17 5 9 - - 1.8

Other Formats:

Comma delimited format used in spreadsheet applications
http://www.bom.gov.au/fwo/IDV60801/IDV60801.94846.axf

JavaScript Object Notation format (JSON) in row-major order
http://www.bom.gov.au/fwo/IDV60801/IDV60801.94846.json